sensor_id;sensor_type;location;lat;lon;timestamp;pressure;altitude;pressure_sealevel;temperature;humidity
82887;BME280;72660;51.258;-2.200;2023-12-14T00:00:05;101037.61;;;4.92;48.41
82887;BME280;72660;51.258;-2.200;2023-12-14T00:02:30;101041.64;;;4.90;47.85
82887;BME280;72660;51.258;-2.200;2023-12-14T00:04:55;101043.58;;;4.41;48.18
82887;BME280;72660;51.258;-2.200;2023-12-14T00:07:20;101041.44;;;4.67;48.25
82887;BME280;72660;51.258;-2.200;2023-12-14T00:09:46;101045.77;;;4.66;48.08
82887;BME280;72660;51.258;-2.200;2023-12-14T00:12:11;101051.92;;;4.61;48.01
82887;BME280;72660;51.258;-2.200;2023-12-14T00:14:36;101056.74;;;4.53;48.21
82887;BME280;72660;51.258;-2.200;2023-12-14T00:17:02;101057.60;;;4.61;47.93
82887;BME280;72660;51.258;-2.200;2023-12-14T00:19:27;101058.00;;;4.39;48.09
82887;BME280;72660;51.258;-2.200;2023-12-14T00:21:53;101064.43;;;4.37;48.31
82887;BME280;72660;51.258;-2.200;2023-12-14T00:24:18;101066.09;;;4.62;47.77
82887;BME280;72660;51.258;-2.200;2023-12-14T00:26:43;101064.61;;;4.73;48.21
82887;BME280;72660;51.258;-2.200;2023-12-14T00:29:08;101064.31;;;4.21;48.86
82887;BME280;72660;51.258;-2.200;2023-12-14T00:31:34;101065.23;;;3.97;48.63
82887;BME280;72660;51.258;-2.200;2023-12-14T00:33:59;101065.07;;;4.14;49.12
82887;BME280;72660;51.258;-2.200;2023-12-14T00:36:24;101072.43;;;4.12;49.38
82887;BME280;72660;51.258;-2.200;2023-12-14T00:38:49;101071.80;;;4.07;49.58
82887;BME280;72660;51.258;-2.200;2023-12-14T00:41:14;101075.13;;;3.96;49.57
82887;BME280;72660;51.258;-2.200;2023-12-14T00:43:40;101078.37;;;3.75;49.70
82887;BME280;72660;51.258;-2.200;2023-12-14T00:46:06;101082.22;;;4.08;49.37
82887;BME280;72660;51.258;-2.200;2023-12-14T00:48:32;101086.49;;;3.84;49.39
82887;BME280;72660;51.258;-2.200;2023-12-14T00:50:57;101090.40;;;3.91;49.15
82887;BME280;72660;51.258;-2.200;2023-12-14T00:53:22;101088.96;;;3.97;49.01
82887;BME280;72660;51.258;-2.200;2023-12-14T00:55:48;101092.81;;;4.14;48.72
82887;BME280;72660;51.258;-2.200;2023-12-14T00:58:14;101094.84;;;4.32;48.69
82887;BME280;72660;51.258;-2.200;2023-12-14T01:00:39;101102.43;;;4.30;48.33
82887;BME280;72660;51.258;-2.200;2023-12-14T01:03:05;101106.23;;;3.74;48.81
82887;BME280;72660;51.258;-2.200;2023-12-14T01:05:30;101107.54;;;3.96;48.34
82887;BME280;72660;51.258;-2.200;2023-12-14T01:07:55;101100.55;;;3.88;48.61
82887;BME280;72660;51.258;-2.200;2023-12-14T01:10:20;101104.31;;;3.99;49.12
82887;BME280;72660;51.258;-2.200;2023-12-14T01:12:45;101110.31;;;4.04;48.97
82887;BME280;72660;51.258;-2.200;2023-12-14T01:15:11;101108.23;;;3.48;49.64
82887;BME280;72660;51.258;-2.200;2023-12-14T01:17:36;101108.08;;;3.43;50.14
82887;BME280;72660;51.258;-2.200;2023-12-14T01:20:04;101114.43;;;3.79;49.54
82887;BME280;72660;51.258;-2.200;2023-12-14T01:22:27;101122.09;;;3.95;49.37
82887;BME280;72660;51.258;-2.200;2023-12-14T01:24:53;101120.58;;;4.03;49.04
82887;BME280;72660;51.258;-2.200;2023-12-14T01:27:18;101119.46;;;3.69;49.16
82887;BME280;72660;51.258;-2.200;2023-12-14T01:29:44;101117.98;;;3.86;48.99
82887;BME280;72660;51.258;-2.200;2023-12-14T01:32:09;101119.62;;;4.53;48.60
82887;BME280;72660;51.258;-2.200;2023-12-14T01:34:35;101128.74;;;3.98;48.90
82887;BME280;72660;51.258;-2.200;2023-12-14T01:37:00;101131.66;;;4.04;48.90
82887;BME280;72660;51.258;-2.200;2023-12-14T01:39:26;101130.64;;;4.01;49.07
82887;BME280;72660;51.258;-2.200;2023-12-14T01:41:51;101125.29;;;3.94;49.20
82887;BME280;72660;51.258;-2.200;2023-12-14T01:44:16;101123.50;;;3.85;49.38
82887;BME280;72660;51.258;-2.200;2023-12-14T01:46:42;101119.66;;;4.11;49.00
82887;BME280;72660;51.258;-2.200;2023-12-14T01:49:07;101111.25;;;3.94;49.21
82887;BME280;72660;51.258;-2.200;2023-12-14T01:51:33;101114.89;;;3.94;49.31
82887;BME280;72660;51.258;-2.200;2023-12-14T01:53:59;101125.81;;;3.75;49.20
82887;BME280;72660;51.258;-2.200;2023-12-14T01:56:24;101125.39;;;3.96;49.01
82887;BME280;72660;51.258;-2.200;2023-12-14T01:58:49;101126.44;;;4.20;48.54
82887;BME280;72660;51.258;-2.200;2023-12-14T02:01:22;101132.88;;;3.78;49.35
82887;BME280;72660;51.258;-2.200;2023-12-14T02:03:44;101136.02;;;3.89;49.25
82887;BME280;72660;51.258;-2.200;2023-12-14T02:06:06;101131.48;;;3.91;49.37
82887;BME280;72660;51.258;-2.200;2023-12-14T02:08:31;101130.38;;;3.95;49.26
82887;BME280;72660;51.258;-2.200;2023-12-14T02:10:56;101120.00;;;4.24;48.73
82887;BME280;72660;51.258;-2.200;2023-12-14T02:13:22;101120.02;;;3.91;49.01
82887;BME280;72660;51.258;-2.200;2023-12-14T02:15:47;101114.11;;;4.31;48.86
82887;BME280;72660;51.258;-2.200;2023-12-14T02:18:13;101112.02;;;4.21;48.97
82887;BME280;72660;51.258;-2.200;2023-12-14T02:20:38;101114.90;;;4.03;49.40
82887;BME280;72660;51.258;-2.200;2023-12-14T02:23:03;101109.58;;;4.32;49.04
82887;BME280;72660;51.258;-2.200;2023-12-14T02:25:29;101114.42;;;4.24;48.78
82887;BME280;72660;51.258;-2.200;2023-12-14T02:27:54;101118.41;;;4.58;48.70
82887;BME280;72660;51.258;-2.200;2023-12-14T02:30:19;101122.03;;;4.59;48.46
82887;BME280;72660;51.258;-2.200;2023-12-14T02:32:45;101128.03;;;4.68;48.41
82887;BME280;72660;51.258;-2.200;2023-12-14T02:35:10;101130.24;;;4.56;48.10
82887;BME280;72660;51.258;-2.200;2023-12-14T02:37:36;101126.92;;;4.82;47.67
82887;BME280;72660;51.258;-2.200;2023-12-14T02:40:02;101128.79;;;5.10;47.74
82887;BME280;72660;51.258;-2.200;2023-12-14T02:42:26;101134.93;;;4.91;47.68
82887;BME280;72660;51.258;-2.200;2023-12-14T02:44:52;101133.86;;;5.43;47.40
82887;BME280;72660;51.258;-2.200;2023-12-14T02:47:17;101134.78;;;5.27;47.35
82887;BME280;72660;51.258;-2.200;2023-12-14T02:49:43;101136.36;;;5.02;47.26
82887;BME280;72660;51.258;-2.200;2023-12-14T02:52:08;101141.25;;;5.25;47.14
82887;BME280;72660;51.258;-2.200;2023-12-14T02:54:33;101154.61;;;5.74;46.61
82887;BME280;72660;51.258;-2.200;2023-12-14T02:56:59;101158.14;;;5.41;46.67
82887;BME280;72660;51.258;-2.200;2023-12-14T02:59:24;101157.44;;;5.31;46.78
82887;BME280;72660;51.258;-2.200;2023-12-14T03:01:51;101162.28;;;5.19;46.54
82887;BME280;72660;51.258;-2.200;2023-12-14T03:04:15;101170.12;;;5.51;46.60
82887;BME280;72660;51.258;-2.200;2023-12-14T03:06:41;101170.97;;;5.87;46.53
82887;BME280;72660;51.258;-2.200;2023-12-14T03:09:06;101167.06;;;5.73;46.43
82887;BME280;72660;51.258;-2.200;2023-12-14T03:11:32;101173.07;;;5.86;46.41
82887;BME280;72660;51.258;-2.200;2023-12-14T03:13:57;101171.82;;;5.38;46.47
82887;BME280;72660;51.258;-2.200;2023-12-14T03:16:23;101176.32;;;5.79;46.17
82887;BME280;72660;51.258;-2.200;2023-12-14T03:18:48;101174.17;;;5.93;46.30
82887;BME280;72660;51.258;-2.200;2023-12-14T03:21:13;101165.87;;;5.32;47.18
82887;BME280;72660;51.258;-2.200;2023-12-14T03:23:39;101168.52;;;5.58;47.20
82887;BME280;72660;51.258;-2.200;2023-12-14T03:26:04;101167.00;;;5.48;47.51
82887;BME280;72660;51.258;-2.200;2023-12-14T03:28:30;101161.37;;;5.67;47.27
82887;BME280;72660;51.258;-2.200;2023-12-14T03:30:55;101158.20;;;5.63;47.16
82887;BME280;72660;51.258;-2.200;2023-12-14T03:33:20;101156.67;;;5.15;47.71
82887;BME280;72660;51.258;-2.200;2023-12-14T03:35:46;101159.99;;;4.75;49.63
82887;BME280;72660;51.258;-2.200;2023-12-14T03:38:11;101152.66;;;5.12;48.35
82887;BME280;72660;51.258;-2.200;2023-12-14T03:40:36;101147.17;;;5.37;48.11
82887;BME280;72660;51.258;-2.200;2023-12-14T03:43:02;101142.44;;;5.53;47.68
82887;BME280;72660;51.258;-2.200;2023-12-14T03:45:27;101134.84;;;5.40;48.29
82887;BME280;72660;51.258;-2.200;2023-12-14T03:47:53;101130.50;;;5.52;48.23
82887;BME280;72660;51.258;-2.200;2023-12-14T03:50:18;101128.54;;;5.28;48.38
82887;BME280;72660;51.258;-2.200;2023-12-14T03:52:44;101130.12;;;5.60;47.68
82887;BME280;72660;51.258;-2.200;2023-12-14T03:55:09;101132.09;;;5.35;48.23
82887;BME280;72660;51.258;-2.200;2023-12-14T03:57:34;101130.49;;;5.74;47.83
82887;BME280;72660;51.258;-2.200;2023-12-14T04:00:00;101131.42;;;5.84;47.03
82887;BME280;72660;51.258;-2.200;2023-12-14T04:02:25;101126.56;;;5.76;47.24
82887;BME280;72660;51.258;-2.200;2023-12-14T04:04:50;101128.87;;;6.01;47.33
82887;BME280;72660;51.258;-2.200;2023-12-14T04:07:16;101127.50;;;6.18;47.09
82887;BME280;72660;51.258;-2.200;2023-12-14T04:09:41;101128.21;;;6.18;46.62
82887;BME280;72660;51.258;-2.200;2023-12-14T04:12:07;101133.88;;;6.00;47.03
82887;BME280;72660;51.258;-2.200;2023-12-14T04:14:32;101136.71;;;6.14;46.82
82887;BME280;72660;51.258;-2.200;2023-12-14T04:16:58;101142.83;;;6.40;46.85
82887;BME280;72660;51.258;-2.200;2023-12-14T04:19:23;101148.37;;;6.16;46.65
82887;BME280;72660;51.258;-2.200;2023-12-14T04:21:49;101151.71;;;6.38;46.27
82887;BME280;72660;51.258;-2.200;2023-12-14T04:24:14;101154.22;;;6.46;46.35
82887;BME280;72660;51.258;-2.200;2023-12-14T04:26:39;101150.89;;;6.67;45.90
82887;BME280;72660;51.258;-2.200;2023-12-14T04:29:05;101151.56;;;6.82;45.84
82887;BME280;72660;51.258;-2.200;2023-12-14T04:31:30;101153.03;;;6.86;45.52
82887;BME280;72660;51.258;-2.200;2023-12-14T04:33:56;101155.36;;;6.61;45.88
82887;BME280;72660;51.258;-2.200;2023-12-14T04:36:21;101157.02;;;6.75;45.85
82887;BME280;72660;51.258;-2.200;2023-12-14T04:38:47;101158.62;;;6.58;45.77
82887;BME280;72660;51.258;-2.200;2023-12-14T04:41:13;101158.98;;;6.71;45.43
82887;BME280;72660;51.258;-2.200;2023-12-14T04:43:38;101149.69;;;6.95;45.50
82887;BME280;72660;51.258;-2.200;2023-12-14T04:46:04;101150.31;;;7.06;45.25
82887;BME280;72660;51.258;-2.200;2023-12-14T04:48:29;101149.65;;;6.67;45.90
82887;BME280;72660;51.258;-2.200;2023-12-14T04:50:54;101155.95;;;6.62;46.19
82887;BME280;72660;51.258;-2.200;2023-12-14T04:53:20;101161.21;;;6.99;45.85
82887;BME280;72660;51.258;-2.200;2023-12-14T04:55:45;101159.42;;;6.58;46.15
82887;BME280;72660;51.258;-2.200;2023-12-14T04:58:10;101156.98;;;6.30;46.69
82887;BME280;72660;51.258;-2.200;2023-12-14T05:00:36;101156.34;;;6.46;46.90
82887;BME280;72660;51.258;-2.200;2023-12-14T05:03:01;101167.27;;;6.15;47.32
82887;BME280;72660;51.258;-2.200;2023-12-14T05:05:27;101172.13;;;6.37;46.98
82887;BME280;72660;51.258;-2.200;2023-12-14T05:07:52;101173.07;;;6.82;46.37
82887;BME280;72660;51.258;-2.200;2023-12-14T05:10:17;101179.20;;;6.65;46.77
82887;BME280;72660;51.258;-2.200;2023-12-14T05:12:43;101182.01;;;6.67;46.48
82887;BME280;72660;51.258;-2.200;2023-12-14T05:15:09;101172.07;;;6.64;46.54
82887;BME280;72660;51.258;-2.200;2023-12-14T05:17:33;101161.33;;;6.40;46.98
82887;BME280;72660;51.258;-2.200;2023-12-14T05:19:59;101158.94;;;6.50;46.80
82887;BME280;72660;51.258;-2.200;2023-12-14T05:22:24;101154.40;;;6.79;47.19
82887;BME280;72660;51.258;-2.200;2023-12-14T05:24:50;101153.18;;;6.37;47.22
82887;BME280;72660;51.258;-2.200;2023-12-14T05:27:15;101162.62;;;6.16;47.73
82887;BME280;72660;51.258;-2.200;2023-12-14T05:29:41;101160.89;;;6.56;47.24
82887;BME280;72660;51.258;-2.200;2023-12-14T05:32:06;101162.23;;;6.82;46.88
82887;BME280;72660;51.258;-2.200;2023-12-14T05:34:32;101159.01;;;7.11;46.55
82887;BME280;72660;51.258;-2.200;2023-12-14T05:36:57;101174.35;;;6.76;46.66
82887;BME280;72660;51.258;-2.200;2023-12-14T05:39:22;101169.20;;;7.15;46.78
82887;BME280;72660;51.258;-2.200;2023-12-14T05:41:48;101164.07;;;7.05;46.84
82887;BME280;72660;51.258;-2.200;2023-12-14T05:44:13;101159.45;;;7.00;46.68
82887;BME280;72660;51.258;-2.200;2023-12-14T05:46:39;101158.81;;;7.29;46.58
82887;BME280;72660;51.258;-2.200;2023-12-14T05:49:04;101157.97;;;6.90;46.82
82887;BME280;72660;51.258;-2.200;2023-12-14T05:51:30;101162.33;;;6.68;46.71
82887;BME280;72660;51.258;-2.200;2023-12-14T05:53:55;101166.55;;;6.48;47.12
82887;BME280;72660;51.258;-2.200;2023-12-14T05:56:20;101169.79;;;6.86;46.96
82887;BME280;72660;51.258;-2.200;2023-12-14T05:58:46;101171.03;;;6.76;47.15
82887;BME280;72660;51.258;-2.200;2023-12-14T06:01:11;101172.97;;;7.18;47.31
82887;BME280;72660;51.258;-2.200;2023-12-14T06:03:36;101175.28;;;6.71;47.25
82887;BME280;72660;51.258;-2.200;2023-12-14T06:06:02;101185.26;;;6.86;46.85
82887;BME280;72660;51.258;-2.200;2023-12-14T06:08:27;101185.32;;;6.43;47.41
82887;BME280;72660;51.258;-2.200;2023-12-14T06:10:52;101188.64;;;6.59;47.62
82887;BME280;72660;51.258;-2.200;2023-12-14T06:13:18;101186.53;;;6.82;47.27
82887;BME280;72660;51.258;-2.200;2023-12-14T06:15:43;101183.93;;;6.62;47.64
82887;BME280;72660;51.258;-2.200;2023-12-14T06:18:09;101187.47;;;6.64;47.61
82887;BME280;72660;51.258;-2.200;2023-12-14T06:20:34;101186.31;;;6.50;48.73
82887;BME280;72660;51.258;-2.200;2023-12-14T06:23:00;101187.30;;;6.52;48.06
82887;BME280;72660;51.258;-2.200;2023-12-14T06:25:25;101194.19;;;6.75;47.70
82887;BME280;72660;51.258;-2.200;2023-12-14T06:27:51;101193.19;;;7.11;47.27
82887;BME280;72660;51.258;-2.200;2023-12-14T06:30:16;101197.59;;;7.14;47.61
82887;BME280;72660;51.258;-2.200;2023-12-14T06:32:41;101200.95;;;6.94;48.15
82887;BME280;72660;51.258;-2.200;2023-12-14T06:35:07;101202.74;;;6.90;48.70
82887;BME280;72660;51.258;-2.200;2023-12-14T06:37:32;101205.98;;;6.96;48.66
82887;BME280;72660;51.258;-2.200;2023-12-14T06:39:58;101206.85;;;6.79;48.85
82887;BME280;72660;51.258;-2.200;2023-12-14T06:42:23;101209.27;;;7.05;48.65
82887;BME280;72660;51.258;-2.200;2023-12-14T06:44:49;101209.47;;;7.06;48.85
82887;BME280;72660;51.258;-2.200;2023-12-14T06:47:14;101211.91;;;6.88;48.85
82887;BME280;72660;51.258;-2.200;2023-12-14T06:49:39;101217.80;;;6.80;49.10
82887;BME280;72660;51.258;-2.200;2023-12-14T06:52:05;101220.59;;;7.19;48.95
82887;BME280;72660;51.258;-2.200;2023-12-14T06:54:30;101227.34;;;7.43;48.70
82887;BME280;72660;51.258;-2.200;2023-12-14T06:56:55;101222.88;;;7.12;48.97
82887;BME280;72660;51.258;-2.200;2023-12-14T06:59:21;101222.89;;;6.75;49.48
82887;BME280;72660;51.258;-2.200;2023-12-14T07:01:46;101220.40;;;6.57;50.28
82887;BME280;72660;51.258;-2.200;2023-12-14T07:04:12;101226.51;;;6.41;50.69
82887;BME280;72660;51.258;-2.200;2023-12-14T07:06:37;101221.47;;;6.54;50.66
82887;BME280;72660;51.258;-2.200;2023-12-14T07:09:03;101225.40;;;6.15;51.56
82887;BME280;72660;51.258;-2.200;2023-12-14T07:11:28;101219.38;;;6.69;51.43
82887;BME280;72660;51.258;-2.200;2023-12-14T07:13:53;101222.77;;;5.95;51.92
82887;BME280;72660;51.258;-2.200;2023-12-14T07:16:19;101224.95;;;6.01;52.13
82887;BME280;72660;51.258;-2.200;2023-12-14T07:18:44;101226.71;;;6.32;51.42
82887;BME280;72660;51.258;-2.200;2023-12-14T07:21:10;101223.05;;;6.59;51.84
82887;BME280;72660;51.258;-2.200;2023-12-14T07:23:36;101224.12;;;6.08;52.11
82887;BME280;72660;51.258;-2.200;2023-12-14T07:26:01;101220.33;;;6.64;52.12
82887;BME280;72660;51.258;-2.200;2023-12-14T07:28:26;101220.48;;;6.33;52.85
82887;BME280;72660;51.258;-2.200;2023-12-14T07:30:51;101223.74;;;6.50;52.52
82887;BME280;72660;51.258;-2.200;2023-12-14T07:33:17;101229.38;;;6.14;52.84
82887;BME280;72660;51.258;-2.200;2023-12-14T07:35:42;101231.79;;;5.79;53.20
82887;BME280;72660;51.258;-2.200;2023-12-14T07:38:08;101238.10;;;6.39;52.47
82887;BME280;72660;51.258;-2.200;2023-12-14T07:40:32;101241.81;;;5.84;53.13
82887;BME280;72660;51.258;-2.200;2023-12-14T07:42:58;101242.70;;;6.52;52.62
82887;BME280;72660;51.258;-2.200;2023-12-14T07:45:23;101240.96;;;6.67;52.50
82887;BME280;72660;51.258;-2.200;2023-12-14T07:47:49;101245.08;;;5.90;53.27
82887;BME280;72660;51.258;-2.200;2023-12-14T07:50:15;101241.89;;;6.33;53.15
82887;BME280;72660;51.258;-2.200;2023-12-14T07:52:39;101247.50;;;6.51;52.85
82887;BME280;72660;51.258;-2.200;2023-12-14T07:55:06;101244.01;;;6.45;52.86
82887;BME280;72660;51.258;-2.200;2023-12-14T07:57:31;101242.09;;;6.46;52.83
82887;BME280;72660;51.258;-2.200;2023-12-14T07:59:56;101242.46;;;6.26;52.66
82887;BME280;72660;51.258;-2.200;2023-12-14T08:02:21;101247.02;;;6.27;52.63
82887;BME280;72660;51.258;-2.200;2023-12-14T08:04:47;101249.25;;;6.69;52.79
82887;BME280;72660;51.258;-2.200;2023-12-14T08:07:12;101248.39;;;6.34;53.19
82887;BME280;72660;51.258;-2.200;2023-12-14T08:09:37;101249.19;;;6.72;52.87
82887;BME280;72660;51.258;-2.200;2023-12-14T08:12:03;101245.60;;;6.34;53.58
82887;BME280;72660;51.258;-2.200;2023-12-14T08:14:28;101251.29;;;6.65;52.63
82887;BME280;72660;51.258;-2.200;2023-12-14T08:16:53;101251.93;;;6.59;52.86
82887;BME280;72660;51.258;-2.200;2023-12-14T08:19:19;101246.94;;;6.77;52.85
82887;BME280;72660;51.258;-2.200;2023-12-14T08:21:44;101242.12;;;6.81;52.35
82887;BME280;72660;51.258;-2.200;2023-12-14T08:24:10;101239.95;;;7.23;52.17
82887;BME280;72660;51.258;-2.200;2023-12-14T08:26:35;101235.48;;;6.93;52.85
82887;BME280;72660;51.258;-2.200;2023-12-14T08:29:01;101230.11;;;6.67;53.70
82887;BME280;72660;51.258;-2.200;2023-12-14T08:31:26;101228.51;;;7.27;52.58
82887;BME280;72660;51.258;-2.200;2023-12-14T08:33:51;101229.11;;;6.89;53.01
82887;BME280;72660;51.258;-2.200;2023-12-14T08:36:16;101233.48;;;7.07;52.89
82887;BME280;72660;51.258;-2.200;2023-12-14T08:38:42;101228.89;;;7.61;52.42
82887;BME280;72660;51.258;-2.200;2023-12-14T08:41:07;101235.22;;;7.60;52.04
82887;BME280;72660;51.258;-2.200;2023-12-14T08:43:32;101231.66;;;7.75;51.85
82887;BME280;72660;51.258;-2.200;2023-12-14T08:45:58;101230.86;;;7.20;52.42
82887;BME280;72660;51.258;-2.200;2023-12-14T08:48:23;101232.56;;;7.62;52.24
82887;BME280;72660;51.258;-2.200;2023-12-14T08:50:48;101236.03;;;7.47;52.63
82887;BME280;72660;51.258;-2.200;2023-12-14T08:53:14;101238.79;;;7.68;52.36
82887;BME280;72660;51.258;-2.200;2023-12-14T08:55:39;101235.21;;;7.20;53.17
82887;BME280;72660;51.258;-2.200;2023-12-14T08:58:05;101235.38;;;8.06;52.42
82887;BME280;72660;51.258;-2.200;2023-12-14T09:00:30;101237.76;;;7.73;52.76
82887;BME280;72660;51.258;-2.200;2023-12-14T09:02:55;101241.45;;;7.73;53.16
82887;BME280;72660;51.258;-2.200;2023-12-14T09:05:21;101248.55;;;7.89;53.24
82887;BME280;72660;51.258;-2.200;2023-12-14T09:07:46;101248.05;;;7.46;53.64
82887;BME280;72660;51.258;-2.200;2023-12-14T09:10:12;101249.42;;;8.16;52.93
82887;BME280;72660;51.258;-2.200;2023-12-14T09:12:37;101246.89;;;8.05;53.06
82887;BME280;72660;51.258;-2.200;2023-12-14T09:15:03;101246.45;;;8.31;53.22
82887;BME280;72660;51.258;-2.200;2023-12-14T09:17:28;101244.80;;;7.73;54.24
82887;BME280;72660;51.258;-2.200;2023-12-14T09:19:53;101246.37;;;7.68;54.68
82887;BME280;72660;51.258;-2.200;2023-12-14T09:22:19;101246.16;;;7.99;54.05
82887;BME280;72660;51.258;-2.200;2023-12-14T09:24:44;101249.52;;;8.03;54.47
82887;BME280;72660;51.258;-2.200;2023-12-14T09:27:09;101251.97;;;8.35;54.66
82887;BME280;72660;51.258;-2.200;2023-12-14T09:29:35;101256.73;;;8.21;53.96
82887;BME280;72660;51.258;-2.200;2023-12-14T09:32:00;101251.22;;;8.16;54.76
82887;BME280;72660;51.258;-2.200;2023-12-14T09:34:25;101252.10;;;8.29;54.85
82887;BME280;72660;51.258;-2.200;2023-12-14T09:36:51;101253.18;;;8.80;53.80
82887;BME280;72660;51.258;-2.200;2023-12-14T09:39:16;101257.06;;;8.12;55.01
82887;BME280;72660;51.258;-2.200;2023-12-14T09:41:41;101255.86;;;8.90;54.02
82887;BME280;72660;51.258;-2.200;2023-12-14T09:44:07;101259.22;;;8.37;54.93
82887;BME280;72660;51.258;-2.200;2023-12-14T09:46:34;101261.70;;;8.53;54.32
82887;BME280;72660;51.258;-2.200;2023-12-14T09:48:58;101261.35;;;8.89;53.94
82887;BME280;72660;51.258;-2.200;2023-12-14T09:51:23;101268.58;;;8.62;54.85
82887;BME280;72660;51.258;-2.200;2023-12-14T09:53:48;101266.48;;;9.11;54.31
82887;BME280;72660;51.258;-2.200;2023-12-14T09:56:14;101264.36;;;8.26;55.22
82887;BME280;72660;51.258;-2.200;2023-12-14T09:58:39;101266.05;;;8.82;55.22
82887;BME280;72660;51.258;-2.200;2023-12-14T10:03:30;101263.83;;;8.70;54.59
82887;BME280;72660;51.258;-2.200;2023-12-14T10:05:56;101267.23;;;9.40;54.34
82887;BME280;72660;51.258;-2.200;2023-12-14T10:08:21;101265.00;;;9.21;54.42
82887;BME280;72660;51.258;-2.200;2023-12-14T10:10:48;101273.37;;;8.89;54.60
82887;BME280;72660;51.258;-2.200;2023-12-14T10:13:11;101275.12;;;8.96;54.32
82887;BME280;72660;51.258;-2.200;2023-12-14T10:15:42;101275.28;;;9.12;54.85
82887;BME280;72660;51.258;-2.200;2023-12-14T10:18:02;101275.41;;;8.72;55.61
82887;BME280;72660;51.258;-2.200;2023-12-14T10:20:28;101280.88;;;9.26;54.66
82887;BME280;72660;51.258;-2.200;2023-12-14T10:22:53;101283.27;;;9.32;54.87
82887;BME280;72660;51.258;-2.200;2023-12-14T10:25:18;101287.87;;;9.90;53.89
82887;BME280;72660;51.258;-2.200;2023-12-14T10:27:46;101293.32;;;9.73;54.32
82887;BME280;72660;51.258;-2.200;2023-12-14T10:30:10;101293.23;;;10.03;53.81
82887;BME280;72660;51.258;-2.200;2023-12-14T10:32:34;101293.87;;;10.13;53.62
82887;BME280;72660;51.258;-2.200;2023-12-14T10:35:00;101303.02;;;9.79;54.48
82887;BME280;72660;51.258;-2.200;2023-12-14T10:37:25;101308.65;;;9.30;55.84
82887;BME280;72660;51.258;-2.200;2023-12-14T10:39:51;101306.88;;;9.84;55.27
82887;BME280;72660;51.258;-2.200;2023-12-14T10:42:18;101310.81;;;9.75;55.48
82887;BME280;72660;51.258;-2.200;2023-12-14T10:44:41;101311.32;;;9.00;57.15
82887;BME280;72660;51.258;-2.200;2023-12-14T10:47:07;101306.15;;;9.71;55.55
82887;BME280;72660;51.258;-2.200;2023-12-14T10:49:33;101308.48;;;9.83;55.58
82887;BME280;72660;51.258;-2.200;2023-12-14T10:51:59;101316.41;;;9.97;54.96
82887;BME280;72660;51.258;-2.200;2023-12-14T10:54:24;101315.29;;;10.21;54.56
82887;BME280;72660;51.258;-2.200;2023-12-14T10:56:48;101319.28;;;10.20;54.63
82887;BME280;72660;51.258;-2.200;2023-12-14T10:59:15;101320.21;;;10.39;53.82
82887;BME280;72660;51.258;-2.200;2023-12-14T11:01:39;101321.29;;;9.87;55.09
82887;BME280;72660;51.258;-2.200;2023-12-14T11:04:06;101326.92;;;9.87;54.96
82887;BME280;72660;51.258;-2.200;2023-12-14T11:06:31;101318.61;;;10.74;54.40
82887;BME280;72660;51.258;-2.200;2023-12-14T11:08:57;101321.98;;;10.59;53.65
82887;BME280;72660;51.258;-2.200;2023-12-14T11:11:20;101316.48;;;10.48;53.96
82887;BME280;72660;51.258;-2.200;2023-12-14T11:13:47;101314.50;;;10.45;54.70
82887;BME280;72660;51.258;-2.200;2023-12-14T11:16:11;101312.93;;;10.60;54.69
82887;BME280;72660;51.258;-2.200;2023-12-14T11:18:36;101314.10;;;10.51;54.41
82887;BME280;72660;51.258;-2.200;2023-12-14T11:21:02;101311.87;;;10.88;54.09
82887;BME280;72660;51.258;-2.200;2023-12-14T11:23:31;101309.66;;;10.45;55.18
82887;BME280;72660;51.258;-2.200;2023-12-14T11:25:54;101314.70;;;10.66;55.14
82887;BME280;72660;51.258;-2.200;2023-12-14T11:28:18;101319.58;;;10.43;55.71
82887;BME280;72660;51.258;-2.200;2023-12-14T11:30:44;101320.80;;;10.63;54.67
82887;BME280;72660;51.258;-2.200;2023-12-14T11:33:08;101319.76;;;10.28;55.64
82887;BME280;72660;51.258;-2.200;2023-12-14T11:35:34;101321.23;;;10.76;54.78
82887;BME280;72660;51.258;-2.200;2023-12-14T11:37:59;101314.25;;;10.65;54.79
82887;BME280;72660;51.258;-2.200;2023-12-14T11:40:25;101317.70;;;10.60;55.47
82887;BME280;72660;51.258;-2.200;2023-12-14T11:42:58;101321.37;;;11.04;54.95
82887;BME280;72660;51.258;-2.200;2023-12-14T11:45:15;101315.53;;;10.62;54.31
82887;BME280;72660;51.258;-2.200;2023-12-14T11:47:41;101322.38;;;11.66;53.11
82887;BME280;72660;51.258;-2.200;2023-12-14T11:50:07;101323.90;;;11.57;52.91
82887;BME280;72660;51.258;-2.200;2023-12-14T11:52:31;101324.09;;;12.17;52.20
82887;BME280;72660;51.258;-2.200;2023-12-14T11:54:57;101331.27;;;11.59;52.78
82887;BME280;72660;51.258;-2.200;2023-12-14T11:57:22;101326.38;;;11.91;52.09
82887;BME280;72660;51.258;-2.200;2023-12-14T11:59:50;101333.98;;;11.63;52.78
82887;BME280;72660;51.258;-2.200;2023-12-14T12:02:23;101337.13;;;11.81;52.78
82887;BME280;72660;51.258;-2.200;2023-12-14T12:07:05;101339.30;;;11.58;52.60
82887;BME280;72660;51.258;-2.200;2023-12-14T12:09:34;101341.74;;;11.88;52.14
82887;BME280;72660;51.258;-2.200;2023-12-14T12:11:54;101340.66;;;11.76;52.85
82887;BME280;72660;51.258;-2.200;2023-12-14T12:14:19;101343.66;;;11.74;52.96
82887;BME280;72660;51.258;-2.200;2023-12-14T12:16:45;101347.23;;;11.74;52.78
82887;BME280;72660;51.258;-2.200;2023-12-14T12:19:10;101344.91;;;11.89;52.63
82887;BME280;72660;51.258;-2.200;2023-12-14T12:21:35;101346.91;;;11.60;53.66
82887;BME280;72660;51.258;-2.200;2023-12-14T12:24:02;101349.18;;;12.22;52.46
82887;BME280;72660;51.258;-2.200;2023-12-14T12:26:27;101350.46;;;11.82;52.68
82887;BME280;72660;51.258;-2.200;2023-12-14T12:28:52;101348.42;;;12.18;52.21
82887;BME280;72660;51.258;-2.200;2023-12-14T12:31:17;101351.55;;;12.02;52.49
82887;BME280;72660;51.258;-2.200;2023-12-14T12:33:43;101348.11;;;11.90;52.32
82887;BME280;72660;51.258;-2.200;2023-12-14T12:36:09;101351.32;;;12.01;52.12
82887;BME280;72660;51.258;-2.200;2023-12-14T12:38:33;101361.73;;;12.07;52.90
82887;BME280;72660;51.258;-2.200;2023-12-14T12:40:59;101359.16;;;12.15;52.62